Time;durP1;ratioP1;P1;durP2;ratioP2;P2;SDS_P1;SDS_P2;PMS_P1;PMS_P2;Temp;Humidity;BMP_temperature;BMP_pressure;BME280_temperature;BME280_humidity;BME280_pressure;Samples;Min_cycle;Max_cycle;Signal;HPM_P1;HPM_P2
2022/11/21 00:00:31;;;;;;;70.70;17.70;;;;;;;13.69;100.00;95873.78;5003340;28;20516;-58
2022/11/21 00:03:00;;;;;;;54.47;11.75;;;;;;;13.69;100.00;95878.56;5004835;28;20141;-60
2022/11/21 00:05:28;;;;;;;46.40;11.38;;;;;;;13.66;100.00;95857.94;5004592;28;20111;-55
2022/11/21 00:07:55;;;;;;;53.85;12.32;;;;;;;13.72;100.00;95865.81;5005036;28;20046;-60
2022/11/21 00:10:23;;;;;;;42.80;12.30;;;;;;;13.65;100.00;95859.16;5004426;28;20050;-59
2022/11/21 00:12:56;;;;;;;55.88;11.82;;;;;;;13.62;100.00;95848.84;5004505;28;20473;-58
2022/11/21 00:15:25;;;;;;;46.47;13.30;;;;;;;13.72;100.00;95854.69;5005113;28;20046;-58
2022/11/21 00:17:52;;;;;;;72.45;16.63;;;;;;;13.73;100.00;95865.41;5004467;28;20164;-62
2022/11/21 00:20:20;;;;;;;57.35;14.18;;;;;;;13.74;100.00;95855.06;4987104;28;20054;-57
2022/11/21 00:22:48;;;;;;;61.95;13.63;;;;;;;13.73;100.00;95853.47;4983806;28;20050;-62
2022/11/21 00:25:15;;;;;;;47.45;11.60;;;;;;;13.88;100.00;95835.38;4984797;28;20521;-58
2022/11/21 00:27:41;;;;;;;54.58;14.63;;;;;;;13.88;100.00;95824.22;4985000;28;20109;-58
2022/11/21 00:30:10;;;;;;;59.15;12.40;;;;;;;13.97;100.00;95843.97;4972279;28;20142;-62
2022/11/21 00:32:36;;;;;;;56.67;11.65;;;;;;;14.04;100.00;95832.72;4985317;28;20088;-58
2022/11/21 00:35:04;;;;;;;54.65;11.90;;;;;;;14.10;100.00;95836.63;4983367;28;20050;-61
2022/11/21 00:37:32;;;;;;;51.17;12.23;;;;;;;13.47;100.00;95738.19;4984890;28;20061;-59
2022/11/21 00:39:59;;;;;;;54.50;12.10;;;;;;;14.18;100.00;95821.38;4984777;28;21218;-58
2022/11/21 00:42:26;;;;;;;47.88;11.30;;;;;;;14.15;100.00;95805.47;4984954;28;20138;-58
2022/11/21 00:44:52;;;;;;;57.00;11.73;;;;;;;14.02;100.00;95773.91;4985644;28;20063;-62
2022/11/21 00:47:19;;;;;;;58.45;14.43;;;;;;;14.24;100.00;95787.03;4988292;28;20154;-57
2022/11/21 00:49:45;;;;;;;57.25;12.52;;;;;;;14.21;100.00;95789.88;4988212;28;20141;-60
2022/11/21 00:52:12;;;;;;;56.92;11.70;;;;;;;13.93;100.00;95743.00;4986564;28;20464;-62
2022/11/21 00:54:39;;;;;;;45.88;10.98;;;;;;;14.18;100.00;95782.38;4988200;28;20050;-56
2022/11/21 00:57:05;;;;;;;51.13;13.10;;;;;;;14.22;100.00;95771.94;4988130;28;20170;-60
2022/11/21 00:59:32;;;;;;;46.60;10.93;;;;;;;14.18;100.00;95763.66;4988010;28;20116;-60
2022/11/21 01:01:59;;;;;;;42.45;11.25;;;;;;;14.19;100.00;95761.66;4988167;28;20129;-57
2022/11/21 01:04:29;;;;;;;46.47;11.43;;;;;;;14.12;100.00;95739.50;4988181;28;20066;-56
2022/11/21 01:06:56;;;;;;;45.67;11.23;;;;;;;14.12;100.00;95733.91;4987910;28;20085;-60
2022/11/21 01:09:23;;;;;;;54.17;11.95;;;;;;;14.04;100.00;95743.59;4987724;28;20066;-60
2022/11/21 01:11:49;;;;;;;40.75;9.52;;;;;;;14.05;100.00;95756.34;4987657;28;20480;-56
2022/11/21 01:14:16;;;;;;;46.63;10.20;;;;;;;14.08;100.00;95755.50;4988310;28;20117;-56
2022/11/21 01:16:43;;;;;;;42.65;10.15;;;;;;;14.04;100.00;95761.13;4987838;28;20146;-57
2022/11/21 01:19:09;;;;;;;50.25;10.23;;;;;;;14.05;100.00;95761.91;4995809;28;20586;-56
2022/11/21 01:21:36;;;;;;;47.53;9.30;;;;;;;14.11;100.00;95754.63;5006073;28;20053;-56
2022/11/21 01:24:03;;;;;;;41.00;9.45;;;;;;;13.49;100.00;95652.31;5007330;28;20054;-61
2022/11/21 01:26:31;;;;;;;37.38;9.52;;;;;;;13.95;100.00;95737.81;5007411;28;20124;-56
2022/11/21 01:28:59;;;;;;;54.88;10.32;;;;;;;13.53;100.00;95670.53;5006909;28;20107;-56
2022/11/21 01:31:28;;;;;;;47.05;10.43;;;;;;;13.80;100.00;95742.06;5006796;28;20046;-56
2022/11/21 01:33:57;;;;;;;51.65;10.98;;;;;;;13.36;100.00;95696.63;5006756;28;20104;-57
2022/11/21 01:36:31;;;;;;;43.53;10.80;;;;;;;13.18;100.00;95665.53;5006791;28;20149;-60
2022/11/21 01:39:01;;;;;;;48.22;11.85;;;;;;;13.70;100.00;95739.00;5006986;28;20520;-56
2022/11/21 01:41:36;;;;;;;48.70;10.27;;;;;;;13.28;100.00;95655.44;5006736;28;20149;-56
2022/11/21 01:44:15;;;;;;;53.22;11.35;;;;;;;13.56;100.00;95708.63;5005315;28;20057;-57
2022/11/21 01:46:41;;;;;;;35.80;8.90;;;;;;;13.73;100.00;95719.91;5007182;28;20137;-60
2022/11/21 01:49:24;;;;;;;41.83;7.90;;;;;;;13.61;100.00;95701.78;5006902;28;20140;-61
2022/11/21 01:52:01;;;;;;;43.88;10.55;;;;;;;13.58;100.00;95683.97;5006608;28;20054;-61
2022/11/21 01:54:35;;;;;;;45.53;11.48;;;;;;;13.72;100.00;95726.69;5006631;28;20161;-61
2022/11/21 01:57:52;;;;;;;44.90;8.70;;;;;;;13.78;100.00;95731.34;5004661;28;20497;-57
2022/11/21 02:00:23;;;;;;;37.50;9.02;;;;;;;13.74;100.00;95735.41;4984194;28;20066;-56
2022/11/21 02:02:58;;;;;;;42.70;9.65;;;;;;;13.74;100.00;95736.16;4967800;28;20173;-61
2022/11/21 02:05:28;;;;;;;40.63;9.85;;;;;;;13.80;100.00;95750.41;4986810;28;20108;-60
2022/11/21 02:08:01;;;;;;;32.70;8.45;;;;;;;11.60;100.00;95383.78;5006533;28;20543;-60
2022/11/21 02:10:27;;;;;;;44.50;8.30;;;;;;;13.86;100.00;95737.56;5005804;28;20085;-61
2022/11/21 02:12:57;;;;;;;32.20;8.63;;;;;;;13.86;100.00;95743.13;5006429;28;20388;-61
2022/11/21 02:15:26;;;;;;;41.28;8.95;;;;;;;13.96;100.00;95708.78;5006244;28;20081;-60
2022/11/21 02:17:53;;;;;;;31.33;7.88;;;;;;;13.68;100.00;95635.69;5006269;28;20141;-56
2022/11/21 02:20:22;;;;;;;38.90;8.50;;;;;;;13.65;100.00;95656.03;4989056;28;20050;-61
2022/11/21 02:23:03;;;;;;;25.42;7.07;;;;;;;13.79;100.00;95651.41;4986356;28;20050;-62
2022/11/21 02:25:34;;;;;;;27.02;5.85;;;;;;;13.74;100.00;95668.63;4986204;28;20148;-61
2022/11/21 02:28:05;;;;;;;25.80;6.60;;;;;;;13.59;100.00;95684.75;4985216;28;20555;-57
2022/11/21 02:30:36;;;;;;;25.92;6.78;;;;;;;13.65;100.00;95692.19;4986419;28;20050;-61
2022/11/21 02:33:03;;;;;;;30.35;7.55;;;;;;;13.67;100.00;95681.41;4986462;28;20085;-61
2022/11/21 02:35:29;;;;;;;26.88;5.82;;;;;;;13.59;100.00;95674.41;4985915;28;20141;-60
2022/11/21 02:38:24;;;;;;;25.95;6.20;;;;;;;13.60;100.00;95686.31;4986599;28;20424;-57
2022/11/21 02:41:02;;;;;;;23.85;5.55;;;;;;;13.00;100.00;95601.09;4985983;28;20104;-61
2022/11/21 02:43:43;;;;;;;26.52;6.18;;;;;;;13.52;100.00;95685.66;4986427;28;20167;-60
2022/11/21 02:46:09;;;;;;;28.05;5.72;;;;;;;13.56;100.00;95714.19;4985875;28;20060;-58
2022/11/21 02:48:37;;;;;;;23.58;6.22;;;;;;;13.20;100.00;95651.19;4986356;28;20112;-61
2022/11/21 02:51:04;;;;;;;21.95;6.15;;;;;;;13.40;100.00;95694.56;4985851;28;20805;-57
2022/11/21 02:53:31;;;;;;;23.88;6.15;;;;;;;13.37;100.00;95705.78;4986346;28;20088;-61
2022/11/21 02:55:57;;;;;;;29.98;10.55;;;;;;;13.33;100.00;95711.38;4985945;28;20160;-58
2022/11/21 02:58:24;;;;;;;40.08;14.55;;;;;;;13.37;100.00;95700.97;4986263;28;20145;-56
2022/11/21 03:00:50;;;;;;;24.42;7.28;;;;;;;13.29;100.00;95704.31;4986231;28;20161;-61
2022/11/21 03:03:17;;;;;;;26.83;9.30;;;;;;;13.31;100.00;95702.66;4986401;28;20125;-61
2022/11/21 03:05:44;;;;;;;28.08;9.60;;;;;;;13.20;100.00;95702.03;4970804;28;20711;-57
2022/11/21 03:08:10;;;;;;;31.35;9.40;;;;;;;13.03;100.00;95675.28;4985515;28;20054;-56
2022/11/21 03:10:37;;;;;;;24.50;8.50;;;;;;;13.05;100.00;95706.25;4985812;28;20208;-56
2022/11/21 03:13:04;;;;;;;39.83;13.38;;;;;;;12.93;100.00;95692.88;4984839;28;20054;-57
2022/11/21 03:15:33;;;;;;;24.02;6.55;;;;;;;12.75;100.00;95658.19;4986009;28;20053;-59
2022/11/21 03:18:01;;;;;;;23.92;7.30;;;;;;;13.07;100.00;95714.16;4985672;28;20074;-61
2022/11/21 03:20:30;;;;;;;33.33;6.85;;;;;;;12.99;100.00;95710.66;5003268;28;20077;-60
2022/11/21 03:22:57;;;;;;;28.60;7.97;;;;;;;12.91;100.00;95706.41;5005506;28;20046;-57
2022/11/21 03:25:23;;;;;;;24.90;7.78;;;;;;;12.85;100.00;95699.72;5005345;28;20483;-57
2022/11/21 03:27:52;;;;;;;30.80;7.32;;;;;;;12.80;100.00;95694.66;5005431;28;20129;-61
2022/11/21 03:30:20;;;;;;;29.33;7.78;;;;;;;12.78;100.00;95699.84;5005061;28;20119;-57
2022/11/21 03:32:47;;;;;;;35.53;11.73;;;;;;;12.55;100.00;95671.94;5005083;28;20115;-60
2022/11/21 03:35:14;;;;;;;42.75;13.48;;;;;;;12.69;100.00;95688.47;5004946;28;20093;-60
2022/11/21 03:37:40;;;;;;;27.70;10.75;;;;;;;12.43;100.00;95653.06;5005260;28;21153;-57
2022/11/21 03:40:07;;;;;;;37.63;14.50;;;;;;;12.58;100.00;95673.13;5003321;28;20058;-61
2022/11/21 03:42:34;;;;;;;51.03;19.95;;;;;;;12.63;100.00;95670.66;5003696;28;20096;-62
2022/11/21 03:45:01;;;;;;;39.70;16.75;;;;;;;12.55;100.00;95666.38;5005309;28;20140;-62
2022/11/21 03:47:28;;;;;;;36.58;11.70;;;;;;;12.25;100.00;95646.94;5003367;28;20054;-61
2022/11/21 03:49:54;;;;;;;31.90;10.85;;;;;;;12.27;100.00;95638.97;5003583;28;20121;-58
2022/11/21 03:52:21;;;;;;;28.98;9.70;;;;;;;12.23;100.00;95655.69;5004831;28;20133;-57
2022/11/21 03:54:47;;;;;;;39.75;13.23;;;;;;;12.25;100.00;95663.59;5003524;28;20054;-57
2022/11/21 03:57:14;;;;;;;29.85;12.35;;;;;;;11.90;100.00;95597.41;5004707;28;20144;-62
2022/11/21 03:59:41;;;;;;;33.67;12.80;;;;;;;12.14;100.00;95657.38;5004858;28;20659;-61
2022/11/21 04:02:07;;;;;;;36.40;13.73;;;;;;;12.15;100.00;95648.63;5004850;28;20054;-58
2022/11/21 04:04:34;;;;;;;34.67;13.60;;;;;;;12.08;100.00;95650.72;5004528;28;20144;-61
2022/11/21 04:07:00;;;;;;;37.10;13.20;;;;;;;12.09;100.00;95647.50;5004852;28;20565;-58
2022/11/21 04:09:27;;;;;;;32.67;10.70;;;;;;;11.63;100.00;95594.50;5004369;28;20390;-57
2022/11/21 04:11:53;;;;;;;35.65;10.85;;;;;;;11.94;100.00;95639.75;5003075;28;20081;-61
2022/11/21 04:14:20;;;;;;;26.50;10.70;;;;;;;11.53;100.00;95595.41;5004691;28;20058;-61
2022/11/21 04:16:47;;;;;;;34.08;12.48;;;;;;;11.43;100.00;95593.50;5004845;28;20895;-62
2022/11/21 04:19:13;;;;;;;38.47;13.77;;;;;;;11.75;100.00;95652.25;4998626;28;20104;-58
2022/11/21 04:21:40;;;;;;;35.78;13.98;;;;;;;11.38;100.00;95601.50;4987739;28;20154;-61
2022/11/21 04:24:07;;;;;;;36.45;7.97;;;;;;;11.75;100.00;95651.47;4987416;28;20054;-62
2022/11/21 04:26:33;;;;;;;33.00;12.13;;;;;;;11.72;100.00;95650.31;4987506;28;20058;-61
2022/11/21 04:29:00;;;;;;;34.15;13.45;;;;;;;11.66;100.00;95648.38;4988890;28;20137;-60
2022/11/21 04:31:26;;;;;;;37.22;12.82;;;;;;;11.50;100.00;95628.69;4987229;28;20627;-61
2022/11/21 04:33:53;;;;;;;30.58;12.23;;;;;;;11.59;100.00;95643.66;4988849;28;20481;-57
2022/11/21 04:36:20;;;;;;;26.88;10.45;;;;;;;11.44;100.00;95647.78;4988647;28;20054;-61
2022/11/21 04:38:46;;;;;;;27.25;12.43;;;;;;;11.44;100.00;95653.31;4988425;28;20054;-62
2022/11/21 04:41:13;;;;;;;36.58;11.13;;;;;;;11.45;100.00;95648.53;4988146;28;20137;-61
2022/11/21 04:43:39;;;;;;;28.20;11.10;;;;;;;11.34;100.00;95625.69;4988259;28;20569;-61
2022/11/21 04:46:06;;;;;;;32.95;12.15;;;;;;;11.43;100.00;95650.97;4988320;28;20062;-60
2022/11/21 04:48:32;;;;;;;27.08;11.98;;;;;;;10.83;100.00;95551.69;4988582;28;20312;-61
2022/11/21 04:50:59;;;;;;;30.45;11.77;;;;;;;11.05;100.00;95596.66;4988234;28;20105;-57
2022/11/21 04:53:26;;;;;;;34.28;13.25;;;;;;;11.25;100.00;95633.69;4988529;28;20133;-61
2022/11/21 04:55:52;;;;;;;38.65;17.40;;;;;;;11.22;100.00;95637.28;4986857;28;20137;-58
2022/11/21 04:58:19;;;;;;;33.78;16.42;;;;;;;11.19;100.00;95651.94;4988591;28;20100;-57
2022/11/21 05:00:45;;;;;;;34.28;17.75;;;;;;;11.22;100.00;95656.69;4987754;28;20124;-58
2022/11/21 05:03:12;;;;;;;38.40;19.40;;;;;;;11.18;100.00;95644.81;4987925;28;20567;-61
2022/11/21 05:05:39;;;;;;;43.08;19.33;;;;;;;11.14;100.00;95642.09;4987699;28;20592;-61
2022/11/21 05:08:05;;;;;;;40.80;17.40;;;;;;;11.04;100.00;95639.38;4988388;28;20054;-57
2022/11/21 05:13:19;;;;;;;46.80;20.15;;;;;;;11.03;100.00;95643.38;4987675;28;20488;-58
2022/11/21 05:13:21;;;;;;;41.10;20.15;;;;;;;10.96;100.00;95638.66;4987578;28;20104;-60
2022/11/21 05:15:51;;;;;;;41.63;22.08;;;;;;;10.85;100.00;95649.03;4987616;28;20142;-58
2022/11/21 05:18:18;;;;;;;65.35;31.15;;;;;;;10.86;100.00;95644.28;4987987;28;20129;-61
2022/11/21 05:20:45;;;;;;;53.75;30.80;;;;;;;10.33;100.00;95578.94;5005729;28;20588;-57
2022/11/21 05:23:12;;;;;;;31.92;15.25;;;;;;;10.84;100.00;95646.66;5007520;28;20142;-57
2022/11/21 05:25:39;;;;;;;37.55;13.95;;;;;;;10.81;100.00;95650.25;5005757;28;20120;-57
2022/11/21 05:28:05;;;;;;;39.22;16.83;;;;;;;10.78;100.00;95653.81;5006817;28;20497;-57
2022/11/21 05:30:32;;;;;;;38.70;17.58;;;;;;;10.73;100.00;95664.13;5006011;28;20101;-61
2022/11/21 05:32:59;;;;;;;41.15;20.15;;;;;;;10.71;100.00;95649.13;5005762;28;20050;-61
2022/11/21 05:35:25;;;;;;;44.35;20.48;;;;;;;10.22;100.00;95572.69;5007049;28;20545;-60
2022/11/21 05:37:58;;;;;;;41.88;20.98;;;;;;;10.69;100.00;95655.06;5007487;28;20108;-61
2022/11/21 05:40:25;;;;;;;65.75;31.60;;;;;;;10.54;100.00;95650.78;5005341;28;20144;-61
2022/11/21 05:45:37;;;;;;;22.95;10.30;;;;;;;10.19;100.00;95589.31;5006427;28;20058;-61
2022/11/21 05:48:06;;;;;;;14.95;7.20;;;;;;;10.44;100.00;95632.25;5005930;28;20050;-57
2022/11/21 05:50:36;;;;;;;22.92;9.23;;;;;;;10.45;100.00;95653.22;5003446;28;20234;-56
2022/11/21 05:53:03;;;;;;;16.73;7.97;;;;;;;10.42;100.00;95654.00;5003459;28;20061;-57
2022/11/21 05:55:33;;;;;;;22.10;9.23;;;;;;;10.37;100.00;95651.66;5004303;28;20129;-61
2022/11/21 05:58:00;;;;;;;15.93;6.00;;;;;;;10.10;100.00;95611.84;5005210;28;20116;-61
2022/11/21 06:00:28;;;;;;;19.80;8.90;;;;;;;10.41;100.00;95646.13;5004869;28;20128;-57
2022/11/21 06:05:40;;;;;;;23.20;11.27;;;;;;;10.34;100.00;95641.41;5006142;28;20501;-61
2022/11/21 06:08:07;;;;;;;23.40;12.90;;;;;;;10.56;100.00;95651.16;5006514;28;20080;-57
2022/11/21 06:10:33;;;;;;;23.38;11.60;;;;;;;10.67;100.00;95660.22;5006577;28;20054;-57
2022/11/21 06:13:01;;;;;;;18.35;10.95;;;;;;;10.80;100.00;95663.28;5006215;28;20141;-59
2022/11/21 06:15:28;;;;;;;62.60;18.48;;;;;;;10.73;100.00;95675.19;5005965;28;20054;-61
2022/11/21 06:17:54;;;;;;;45.60;16.20;;;;;;;10.90;100.00;95675.50;5006362;28;20056;-61
2022/11/21 06:20:21;;;;;;;37.60;12.18;;;;;;;10.73;100.00;95640.41;5005814;28;20572;-61
2022/11/21 06:22:48;;;;;;;24.90;10.63;;;;;;;11.20;100.00;95684.00;5006134;28;20569;-56
2022/11/21 06:25:14;;;;;;;50.53;26.25;;;;;;;11.32;100.00;95683.50;5004246;28;20583;-61
2022/11/21 06:27:41;;;;;;;35.38;14.32;;;;;;;11.43;100.00;95679.47;5006219;28;20141;-57
2022/11/21 06:30:08;;;;;;;29.58;13.75;;;;;;;11.50;100.00;95684.16;5004384;28;20092;-61
2022/11/21 06:32:36;;;;;;;19.98;9.20;;;;;;;11.66;100.00;95676.13;5004693;28;20058;-60
2022/11/21 06:35:03;;;;;;;25.77;10.38;;;;;;;11.55;100.00;95625.50;5004401;28;20089;-60
2022/11/21 06:37:30;;;;;;;18.58;7.38;;;;;;;11.88;100.00;95683.03;5006113;28;20049;-59
2022/11/21 06:39:56;;;;;;;11.95;6.00;;;;;;;11.51;100.00;95635.81;5006078;28;20133;-61
2022/11/21 06:42:23;;;;;;;13.43;4.60;;;;;;;11.83;100.00;95673.19;5005533;28;20129;-57
2022/11/21 06:44:49;;;;;;;11.13;5.38;;;;;;;11.87;100.00;95671.16;5002032;28;20451;-62
2022/11/21 06:47:16;;;;;;;13.55;5.45;;;;;;;10.80;100.00;95486.03;5005628;28;20093;-57
2022/11/21 06:49:42;;;;;;;11.80;5.22;;;;;;;11.77;100.00;95640.75;5006416;28;20460;-65
2022/11/21 06:52:09;;;;;;;15.68;6.40;;;;;;;12.06;100.00;95683.66;5011008;28;20492;-61
2022/11/21 06:54:36;;;;;;;16.95;8.57;;;;;;;12.09;100.00;95699.47;5014927;28;20988;-63
2022/11/21 06:57:02;;;;;;;17.48;7.40;;;;;;;11.66;100.00;95642.84;5002656;28;20646;-61
2022/11/21 06:59:29;;;;;;;15.95;6.38;;;;;;;11.87;100.00;95692.56;5015390;28;20053;-61
2022/11/21 07:01:55;;;;;;;10.77;5.63;;;;;;;12.07;100.00;95699.09;5017516;28;20073;-64
2022/11/21 07:04:22;;;;;;;14.52;6.35;;;;;;;12.26;100.00;95698.50;5023027;28;20525;-58
2022/11/21 07:06:49;;;;;;;18.08;7.40;;;;;;;12.51;100.00;95693.44;5022630;28;20088;-70
2022/11/21 07:09:15;;;;;;;22.95;7.10;;;;;;;12.73;100.00;95697.53;5024473;28;20110;-59
2022/11/21 07:14:58;;;;;;;16.40;5.75;;;;;;;12.59;100.00;95600.47;5015003;28;20089;-65
2022/11/21 07:17:25;;;;;;;12.52;7.88;;;;;;;13.20;100.00;95671.47;5004328;28;20057;-61
2022/11/21 07:19:51;;;;;;;17.33;8.23;;;;;;;13.49;100.00;95683.72;5001614;28;20057;-65
2022/11/21 07:22:18;;;;;;;16.63;10.13;;;;;;;12.95;100.00;95590.41;4994319;28;20130;-67
2022/11/21 07:24:44;;;;;;;17.08;7.13;;;;;;;13.75;100.00;95692.44;4983654;28;20145;-63
2022/11/21 07:27:11;;;;;;;32.22;19.33;;;;;;;13.90;100.00;95688.97;4996237;28;20608;-69
2022/11/21 07:29:38;;;;;;;20.08;12.07;;;;;;;13.91;100.00;95696.09;5006194;28;20132;-58
2022/11/21 07:32:04;;;;;;;14.40;7.22;;;;;;;13.14;100.00;95564.72;5023991;28;20099;-61
2022/11/21 07:34:31;;;;;;;16.20;9.05;;;;;;;14.06;100.00;95708.59;5010678;28;20101;-65
2022/11/21 07:36:58;;;;;;;14.60;7.15;;;;;;;13.92;100.00;95641.22;5002625;28;20344;-58
2022/11/21 07:39:24;;;;;;;15.15;6.60;;;;;;;14.32;100.00;95698.59;5011357;28;20593;-59
2022/11/21 07:41:51;;;;;;;20.90;9.35;;;;;;;14.43;100.00;95699.16;5022475;28;20054;-62
2022/11/21 07:44:17;;;;;;;15.43;8.25;;;;;;;14.64;100.00;95693.16;5024410;28;20132;-67
2022/11/21 07:46:44;;;;;;;18.00;6.88;;;;;;;14.74;100.00;95690.16;5024065;28;20095;-60
2022/11/21 07:49:11;;;;;;;14.57;7.65;;;;;;;14.88;99.48;95691.84;5016115;28;20045;-59
2022/11/21 07:51:37;;;;;;;15.30;7.10;;;;;;;14.93;99.14;95697.72;5004428;28;20161;-71
2022/11/21 07:54:04;;;;;;;9.90;6.28;;;;;;;15.10;96.66;95692.97;5004702;28;20063;-57
2022/11/21 07:56:31;;;;;;;16.17;6.60;;;;;;;15.23;96.00;95702.22;5008287;28;20107;-67
2022/11/21 07:58:57;;;;;;;13.45;6.72;;;;;;;15.38;95.29;95692.34;5009011;28;20150;-59
2022/11/21 08:01:24;;;;;;;13.30;6.18;;;;;;;15.58;94.05;95690.28;5017702;28;20045;-66
2022/11/21 08:03:51;;;;;;;20.10;7.25;;;;;;;15.63;92.83;95686.19;5026897;28;20049;-66
2022/11/21 08:06:17;;;;;;;13.05;7.78;;;;;;;15.70;91.46;95697.16;5025515;28;20589;-63
2022/11/21 08:08:44;;;;;;;14.73;7.10;;;;;;;15.73;91.14;95697.06;5010493;28;20115;-57
2022/11/21 08:11:11;;;;;;;13.88;6.85;;;;;;;15.43;91.94;95644.38;5006615;28;20054;-57
2022/11/21 08:13:37;;;;;;;14.60;6.57;;;;;;;16.06;92.55;95698.63;5021187;28;20638;-56
2022/11/21 08:16:04;;;;;;;13.13;6.30;;;;;;;16.23;87.97;95705.75;5027909;28;20050;-58
2022/11/21 08:18:31;;;;;;;8.68;6.20;;;;;;;16.33;86.40;95690.72;5020863;28;20084;-69
2022/11/21 08:21:00;;;;;;;10.95;5.43;;;;;;;16.58;84.48;95701.25;5014646;28;20472;-66
2022/11/21 08:23:27;;;;;;;25.17;7.63;;;;;;;16.63;85.32;95698.69;4996369;28;20110;-64
2022/11/21 08:25:54;;;;;;;13.70;5.63;;;;;;;16.96;83.16;95712.56;5009129;28;20062;-57
2022/11/21 08:28:21;;;;;;;29.52;13.25;;;;;;;16.60;79.27;95615.72;4988608;28;20050;-63
2022/11/21 08:30:47;;;;;;;25.52;11.57;;;;;;;17.23;80.97;95696.16;5000603;28;20119;-64
2022/11/21 08:33:14;;;;;;;23.80;10.85;;;;;;;17.14;80.68;95676.44;5019278;28;20130;-61
2022/11/21 08:35:41;;;;;;;19.35;9.45;;;;;;;17.00;78.26;95660.06;5007815;28;20049;-59
2022/11/21 08:38:07;;;;;;;15.23;6.95;;;;;;;16.95;79.24;95629.84;5010810;28;20077;-64
2022/11/21 08:40:34;;;;;;;12.80;7.10;;;;;;;17.36;80.53;95713.72;5022237;28;20049;-66
2022/11/21 08:43:04;;;;;;;14.52;6.03;;;;;;;17.50;78.88;95693.72;5010310;28;20104;-58
2022/11/21 08:45:32;;;;;;;12.85;6.43;;;;;;;17.73;76.22;95713.00;5007245;28;20100;-58
2022/11/21 08:47:59;;;;;;;10.23;5.20;;;;;;;17.41;76.33;95640.38;5017022;28;20061;-60
2022/11/21 08:50:26;;;;;;;5.88;4.03;;;;;;;18.25;70.27;95721.66;5020455;28;20050;-64
2022/11/21 08:53:00;;;;;;;8.50;4.93;;;;;;;17.60;67.97;95597.41;5008818;28;20042;-60
2022/11/21 08:55:28;;;;;;;10.30;4.05;;;;;;;18.54;68.94;95711.03;5009702;28;20542;-60
2022/11/21 08:57:54;;;;;;;15.40;5.40;;;;;;;18.70;69.18;95696.84;5016831;28;20649;-69
2022/11/21 09:00:22;;;;;;;8.80;3.88;;;;;;;18.66;58.03;95701.81;5007223;28;20515;-60
2022/11/21 09:02:48;;;;;;;10.90;4.55;;;;;;;18.74;61.14;95703.13;5015946;28;20511;-61
2022/11/21 09:05:15;;;;;;;6.72;3.75;;;;;;;18.87;58.14;95705.88;5008103;28;20108;-58
2022/11/21 09:07:42;;;;;;;6.50;3.05;;;;;;;18.74;54.60;95713.56;5006586;28;20131;-69
2022/11/21 09:10:11;;;;;;;6.95;3.75;;;;;;;18.06;54.22;95624.63;4999136;28;20061;-61
2022/11/21 09:12:38;;;;;;;5.70;2.28;;;;;;;18.43;54.27;95699.41;4999601;28;20054;-58
2022/11/21 09:18:03;;;;;;;7.30;3.58;;;;;;;18.35;52.67;95709.31;5016038;28;20085;-68
2022/11/21 09:20:32;;;;;;;6.40;3.05;;;;;;;18.39;52.09;95714.78;5025446;28;20057;-62
2022/11/21 09:23:18;;;;;;;6.00;2.63;;;;;;;16.85;53.74;95491.13;5026471;28;20045;-56
2022/11/21 09:25:46;;;;;;;8.45;2.60;;;;;;;18.30;51.03;95711.88;5015460;28;20045;-56
2022/11/21 09:28:13;;;;;;;7.45;3.53;;;;;;;17.86;52.21;95632.53;5026582;28;20081;-61
2022/11/21 09:30:41;;;;;;;4.00;2.15;;;;;;;18.49;51.84;95702.44;5026847;28;20491;-56
2022/11/21 09:33:13;;;;;;;6.93;2.20;;;;;;;18.56;51.73;95702.97;5024916;28;20574;-62
2022/11/21 09:35:40;;;;;;;3.90;2.70;;;;;;;18.58;50.38;95700.50;5026462;28;20053;-61
2022/11/21 09:38:07;;;;;;;7.03;2.60;;;;;;;18.68;50.84;95699.34;5014909;28;20054;-58
2022/11/21 09:40:34;;;;;;;6.00;2.15;;;;;;;18.89;49.87;95704.16;4986927;28;20054;-56
2022/11/21 09:43:19;;;;;;;5.50;2.63;;;;;;;18.96;50.10;95700.31;4986812;28;20097;-61
2022/11/21 09:45:54;;;;;;;5.40;2.50;;;;;;;18.90;49.53;95676.88;4985434;28;20054;-58
2022/11/21 09:48:35;;;;;;;4.15;2.33;;;;;;;19.11;49.86;95710.53;4987098;28;20484;-61
2022/11/21 09:51:09;;;;;;;6.53;2.75;;;;;;;18.68;49.82;95653.66;4986545;28;20148;-55
2022/11/21 09:53:43;;;;;;;5.10;2.85;;;;;;;18.38;48.88;95603.88;4994945;28;21322;-60
2022/11/21 09:56:14;;;;;;;4.22;2.08;;;;;;;18.88;48.81;95696.97;5006183;28;20583;-63
2022/11/21 09:59:03;;;;;;;7.50;3.35;;;;;;;18.89;49.67;95687.31;5006349;28;20164;-56
2022/11/21 10:01:30;;;;;;;16.25;5.63;;;;;;;18.94;49.27;95695.16;5005787;28;20057;-57
2022/11/21 10:04:01;;;;;;;31.80;11.48;;;;;;;18.71;49.42;95669.56;5006191;28;20072;-56
2022/11/21 10:06:30;;;;;;;10.07;3.97;;;;;;;18.63;50.10;95701.94;5005348;28;20061;-56
2022/11/21 10:09:06;;;;;;;23.67;6.65;;;;;;;18.75;51.90;95676.63;5003877;28;20145;-61
2022/11/21 10:11:36;;;;;;;32.20;15.15;;;;;;;18.62;49.54;95678.69;5005635;28;20131;-61
2022/11/21 10:14:37;;;;;;;8.38;4.85;;;;;;;18.86;49.95;95676.22;5005497;28;20058;-63
2022/11/21 10:17:41;;;;;;;4.88;3.15;;;;;;;19.00;49.88;95673.66;5024674;28;20664;-62
2022/11/21 10:20:33;;;;;;;21.40;9.65;;;;;;;19.14;49.44;95681.56;5001066;28;20078;-62
2022/11/21 10:23:29;;;;;;;6.35;3.53;;;;;;;19.28;50.31;95675.41;5001253;28;20097;-62
2022/11/21 10:26:06;;;;;;;8.48;5.40;;;;;;;19.40;49.46;95665.34;4986452;28;20141;-56
2022/11/21 10:28:46;;;;;;;5.30;3.05;;;;;;;19.46;50.03;95675.53;4986417;28;20484;-61
2022/11/21 10:31:14;;;;;;;4.38;3.97;;;;;;;19.57;49.61;95674.31;5000616;28;20200;-57
2022/11/21 10:33:41;;;;;;;3.60;3.10;;;;;;;19.54;49.66;95665.56;4986080;28;20086;-62
2022/11/21 10:36:26;;;;;;;4.80;2.90;;;;;;;19.50;49.61;95681.78;4984504;28;20050;-61
2022/11/21 10:39:01;;;;;;;5.93;2.92;;;;;;;19.63;51.47;95678.09;5004095;28;20509;-62
2022/11/21 10:41:50;;;;;;;8.77;3.10;;;;;;;19.36;49.25;95628.97;5004983;28;20139;-56
2022/11/21 10:47:29;;;;;;;7.05;3.22;;;;;;;19.73;49.51;95665.66;5005415;28;20057;-62
2022/11/21 10:50:13;;;;;;;5.43;2.65;;;;;;;19.45;49.78;95659.91;5004201;28;20089;-61
2022/11/21 10:52:46;;;;;;;4.05;2.47;;;;;;;19.27;48.50;95656.19;5004176;28;20136;-58
2022/11/21 10:55:15;;;;;;;5.25;2.72;;;;;;;18.97;49.65;95666.16;5004024;28;20134;-61
2022/11/21 10:57:48;;;;;;;7.07;2.67;;;;;;;18.89;50.43;95669.72;5003833;28;20049;-56
2022/11/21 11:00:15;;;;;;;6.07;3.17;;;;;;;18.80;49.72;95670.44;5004957;28;20145;-62
2022/11/21 11:03:04;;;;;;;6.65;3.40;;;;;;;18.81;50.71;95674.78;5005184;28;20176;-58
2022/11/21 11:05:36;;;;;;;10.45;4.10;;;;;;;18.90;49.97;95677.69;5004954;28;20528;-58
2022/11/21 11:08:13;;;;;;;8.52;3.70;;;;;;;18.86;50.25;95676.22;5005085;28;20061;-56
2022/11/21 11:10:45;;;;;;;7.70;4.35;;;;;;;18.77;50.67;95674.16;5004786;28;20077;-62
2022/11/21 11:13:32;;;;;;;6.68;2.63;;;;;;;18.60;52.06;95674.78;5004941;28;20499;-57
2022/11/21 11:16:17;;;;;;;;;;;;;;;18.42;52.52;95678.22;5005242;28;20064;-59
2022/11/21 11:18:58;;;;;;;4.18;3.00;;;;;;;18.04;54.13;95674.72;5003414;28;19926;-61
2022/11/21 11:21:40;;;;;;;9.68;3.10;;;;;;;17.94;54.89;95678.69;5004243;28;20054;-56
2022/11/21 11:24:13;;;;;;;4.40;3.10;;;;;;;18.03;55.17;95678.78;5003096;28;20650;-57
2022/11/21 11:26:45;;;;;;;9.70;3.53;;;;;;;18.10;55.61;95678.50;5004839;28;20100;-62
2022/11/21 11:29:18;;;;;;;6.45;3.60;;;;;;;17.50;55.84;95592.94;5003414;28;20492;-62
2022/11/21 11:31:57;;;;;;;8.70;3.58;;;;;;;18.17;55.14;95695.09;5004874;28;20080;-62
2022/11/21 11:34:49;;;;;;;7.82;2.65;;;;;;;18.14;54.37;95698.81;5004612;28;20136;-62
2022/11/21 11:37:31;;;;;;;6.05;2.72;;;;;;;18.01;52.93;95695.25;5009029;28;20093;-56
2022/11/21 11:40:30;;;;;;;4.80;2.80;;;;;;;18.15;53.46;95703.16;5003468;28;20053;-59
2022/11/21 11:48:44;;;;;;;2.63;2.33;;;;;;;18.09;54.09;95713.41;5004652;28;20130;-56
2022/11/21 11:51:39;;;;;;;2.60;2.40;;;;;;;17.88;54.91;95714.09;5004350;28;20072;-62